Time;durP1;ratioP1;P1;durP2;ratioP2;P2;SDS_P1;SDS_P2;PMS_P1;PMS_P2;Temp;Humidity;BMP_temperature;BMP_pressure;BME280_temperature;BME280_humidity;BME280_pressure;Samples;Min_cycle;Max_cycle;Signal;HPM_P1;HPM_P2
2022/02/17 00:00:26;;;;;;;205.77;101.00;;;;;;;5.23;62.25;94732.19;4966315;28;20513;-80
2022/02/17 00:02:53;;;;;;;186.02;95.07;;;;;;;5.24;63.40;94728.63;4970860;29;20043;-80
2022/02/17 00:05:18;;;;;;;209.10;100.05;;;;;;;5.24;63.13;94731.22;4959408;28;20414;-81
2022/02/17 00:07:44;;;;;;;205.15;100.28;;;;;;;5.19;62.75;94749.03;4943520;29;20028;-80
2022/02/17 00:10:09;;;;;;;113.63;58.65;;;;;;;5.02;63.96;94742.69;4942789;29;20043;-80
2022/02/17 00:12:35;;;;;;;88.70;47.92;;;;;;;5.03;65.05;94749.44;4958270;29;20410;-80
2022/02/17 00:15:00;;;;;;;101.10;48.63;;;;;;;5.05;64.78;94744.91;4992451;23;20054;-81
2022/02/17 00:17:26;;;;;;;101.30;51.63;;;;;;;4.96;64.39;94748.66;4970199;28;20046;-81
2022/02/17 00:19:51;;;;;;;94.70;49.28;;;;;;;4.99;65.09;94746.47;4945145;28;20041;-81
2022/02/17 00:22:17;;;;;;;114.10;54.28;;;;;;;4.93;64.33;94743.91;4977844;28;20160;-79
2022/02/17 00:24:42;;;;;;;86.05;48.60;;;;;;;5.00;65.37;94736.97;4977557;28;20438;-79
2022/02/17 00:27:08;;;;;;;103.85;50.75;;;;;;;5.01;64.91;94739.34;4960718;28;20062;-81
2022/02/17 00:29:33;;;;;;;92.97;48.38;;;;;;;5.06;64.60;94744.72;4959847;28;20030;-80
2022/02/17 00:31:59;;;;;;;119.45;61.40;;;;;;;5.07;63.39;94737.78;4959790;28;20050;-80
2022/02/17 00:34:24;;;;;;;119.57;59.28;;;;;;;5.00;63.98;94742.13;4975804;28;20038;-80
2022/02/17 00:36:50;;;;;;;123.13;56.75;;;;;;;5.02;63.65;94722.09;4959649;28;20033;-81
2022/02/17 00:39:15;;;;;;;128.15;59.80;;;;;;;5.02;64.13;94722.09;4960043;28;20090;-80
2022/02/17 00:41:41;;;;;;;124.97;64.15;;;;;;;5.03;63.90;94721.09;4975483;28;20039;-80
2022/02/17 00:44:06;;;;;;;121.40;56.13;;;;;;;5.08;63.89;94722.09;4943329;28;20031;-80
2022/02/17 00:46:32;;;;;;;139.85;67.00;;;;;;;5.00;63.06;94724.88;4976038;28;20026;-80
2022/02/17 00:48:58;;;;;;;134.70;66.65;;;;;;;4.95;63.13;94719.53;4976487;28;20038;-81
2022/02/17 00:51:23;;;;;;;121.57;60.53;;;;;;;5.00;63.58;94721.50;4944198;28;20418;-80
2022/02/17 00:53:49;;;;;;;126.32;63.22;;;;;;;4.99;63.92;94720.72;4969163;28;20042;-81
2022/02/17 00:56:14;;;;;;;134.60;65.30;;;;;;;4.93;63.19;94729.25;4960318;28;20038;-81
2022/02/17 00:58:40;;;;;;;150.90;66.93;;;;;;;4.85;62.54;94721.69;4975916;28;20035;-81
2022/02/17 01:01:05;;;;;;;143.48;69.70;;;;;;;4.80;63.60;94726.66;4976431;28;20043;-81
2022/02/17 01:03:31;;;;;;;130.52;65.88;;;;;;;4.75;63.00;94714.38;4949176;28;20404;-81
2022/02/17 01:05:56;;;;;;;126.40;66.53;;;;;;;4.74;63.42;94720.53;4975613;28;20502;-81
2022/02/17 01:08:22;;;;;;;122.63;62.28;;;;;;;4.72;64.41;94714.78;4975538;28;20019;-80
2022/02/17 01:10:47;;;;;;;126.82;67.70;;;;;;;4.73;63.86;94706.06;4974547;28;20053;-81
2022/02/17 01:13:13;;;;;;;132.15;66.22;;;;;;;4.67;63.79;94701.69;4974638;28;20030;-81
2022/02/17 01:15:38;;;;;;;114.57;61.67;;;;;;;4.62;64.04;94693.75;4943335;28;20035;-80
2022/02/17 01:18:04;;;;;;;106.65;57.00;;;;;;;4.55;63.97;94698.09;4976619;28;20054;-81
2022/02/17 01:20:29;;;;;;;105.97;55.08;;;;;;;4.70;64.01;94703.84;4974859;28;20027;-82
2022/02/17 01:22:55;;;;;;;97.47;55.78;;;;;;;4.69;63.63;94694.56;4959169;28;20038;-81
2022/02/17 01:25:20;;;;;;;132.30;67.25;;;;;;;4.59;64.44;94699.31;4975133;28;20033;-81
2022/02/17 01:27:46;;;;;;;137.52;70.10;;;;;;;4.51;64.92;94694.34;4959035;28;20042;-80
2022/02/17 01:30:12;;;;;;;127.35;66.05;;;;;;;4.54;64.17;94688.78;4958885;28;20034;-81
2022/02/17 01:32:37;;;;;;;114.53;64.05;;;;;;;4.55;64.48;94687.81;4975503;28;20039;-81
2022/02/17 01:37:38;;;;;;;140.70;63.20;;;;;;;4.49;64.35;94668.78;5003203;23;20069;-80
2022/02/17 01:40:04;;;;;;;119.18;63.75;;;;;;;4.53;64.74;94664.03;4964446;28;20058;-79
2022/02/17 01:42:29;;;;;;;116.10;60.08;;;;;;;4.61;64.85;94666.44;4951305;28;20033;-80
2022/02/17 01:44:55;;;;;;;127.45;62.33;;;;;;;4.54;63.63;94652.75;4935203;28;20035;-80
2022/02/17 01:47:20;;;;;;;132.55;64.15;;;;;;;4.48;63.36;94658.69;4950738;28;20046;-79
2022/02/17 01:49:47;;;;;;;131.77;63.58;;;;;;;4.39;63.60;94662.44;4964538;28;20102;-80
2022/02/17 01:52:13;;;;;;;126.07;62.25;;;;;;;4.29;64.18;94649.97;4949478;28;20039;-80
2022/02/17 01:54:39;;;;;;;130.13;61.20;;;;;;;4.43;64.73;94655.94;4946021;28;20074;-79
2022/02/17 01:57:07;;;;;;;117.80;60.05;;;;;;;4.39;64.36;94658.13;4963691;28;20038;-79
2022/02/17 01:59:32;;;;;;;131.98;61.70;;;;;;;4.39;64.04;94662.44;4949283;28;20114;-80
2022/02/17 02:01:58;;;;;;;101.57;51.10;;;;;;;4.34;63.28;94654.53;4934569;28;20059;-79
2022/02/17 02:04:23;;;;;;;91.30;48.55;;;;;;;4.34;63.72;94654.53;4965778;28;20077;-79
2022/02/17 02:06:49;;;;;;;91.68;45.10;;;;;;;4.28;63.26;94655.31;4965884;28;20038;-79
2022/02/17 02:09:16;;;;;;;92.20;46.97;;;;;;;4.26;63.88;94652.16;4946780;28;20438;-79
2022/02/17 02:11:42;;;;;;;76.53;43.30;;;;;;;4.14;63.69;94645.00;4964874;28;20104;-79
2022/02/17 02:14:15;;;;;;;90.95;45.17;;;;;;;4.18;63.79;94655.69;4949212;28;20054;-79
2022/02/17 02:16:40;;;;;;;;;;;;;;;4.27;63.77;94653.75;4949683;28;20425;-79
2022/02/17 02:19:06;;;;;;;78.32;43.17;;;;;;;4.20;64.11;94649.34;4964565;28;19998;-79
2022/02/17 02:21:31;;;;;;;68.55;41.10;;;;;;;4.22;63.60;94652.53;4950194;28;20031;-79
2022/02/17 02:23:57;;;;;;;70.30;41.00;;;;;;;4.20;65.18;94657.06;4964719;28;20077;-80
2022/02/17 02:26:23;;;;;;;72.72;41.92;;;;;;;4.25;65.57;94656.50;4967316;28;20023;-79
2022/02/17 02:28:48;;;;;;;66.32;39.10;;;;;;;4.26;65.29;94647.00;4974427;28;20031;-77
2022/02/17 02:31:14;;;;;;;62.08;37.65;;;;;;;4.31;64.13;94657.50;4978359;28;20072;-79
2022/02/17 02:33:41;;;;;;;67.28;39.28;;;;;;;4.32;64.61;94653.94;4961234;28;20033;-78
2022/02/17 02:36:07;;;;;;;75.50;42.47;;;;;;;4.36;64.23;94658.47;4974769;28;20050;-79
2022/02/17 02:38:32;;;;;;;76.63;41.58;;;;;;;4.36;65.05;94657.69;4957850;28;20026;-78
2022/02/17 02:40:58;;;;;;;85.70;47.63;;;;;;;4.42;65.25;94662.06;4976511;28;20039;-78
2022/02/17 02:43:23;;;;;;;93.32;48.40;;;;;;;4.48;64.29;94656.13;4980754;28;20029;-79
2022/02/17 02:45:49;;;;;;;97.95;49.78;;;;;;;4.48;64.05;94651.75;4953783;28;20031;-79
2022/02/17 02:48:15;;;;;;;93.43;49.05;;;;;;;4.45;64.18;94653.94;4967390;28;20569;-79
2022/02/17 02:50:41;;;;;;;97.28;53.00;;;;;;;4.47;64.17;94650.19;4967975;28;20101;-79
2022/02/17 02:53:06;;;;;;;108.30;54.65;;;;;;;4.54;63.29;94655.31;4951660;28;20049;-79
2022/02/17 02:55:32;;;;;;;123.28;59.10;;;;;;;4.51;63.25;94656.50;4969214;28;20031;-79
2022/02/17 02:58:00;;;;;;;121.53;59.00;;;;;;;4.42;64.01;94662.06;4950355;28;20035;-79
2022/02/17 03:00:26;;;;;;;127.60;60.42;;;;;;;4.37;63.94;94661.84;4947686;28;20487;-79
2022/02/17 03:02:51;;;;;;;124.90;63.90;;;;;;;4.40;64.43;94656.34;4947305;28;20039;-80
2022/02/17 03:05:17;;;;;;;134.88;69.80;;;;;;;4.39;64.46;94665.00;4964720;28;20038;-80
2022/02/17 03:07:42;;;;;;;119.47;63.05;;;;;;;4.41;64.19;94650.19;4948840;28;20026;-81
2022/02/17 03:10:08;;;;;;;112.05;58.75;;;;;;;4.34;65.18;94662.25;4947636;28;20046;-79
2022/02/17 03:12:34;;;;;;;103.88;55.40;;;;;;;4.40;65.71;94653.75;4965879;28;20621;-79
2022/02/17 03:15:00;;;;;;;117.75;58.85;;;;;;;4.48;64.56;94641.47;4949209;28;20035;-79
2022/02/17 03:17:25;;;;;;;112.93;56.08;;;;;;;4.45;64.85;94643.66;4965114;28;20066;-79
2022/02/17 03:19:51;;;;;;;111.20;57.03;;;;;;;4.36;65.50;94650.75;4964783;28;20038;-79
2022/02/17 03:22:16;;;;;;;124.57;59.85;;;;;;;4.39;64.40;94649.56;4946918;28;20042;-79
2022/02/17 03:24:42;;;;;;;107.75;56.60;;;;;;;4.42;64.85;94646.63;5002277;23;20082;-79
2022/02/17 03:27:08;;;;;;;99.22;53.13;;;;;;;4.42;63.75;94641.47;4976894;28;20041;-80
2022/02/17 03:29:33;;;;;;;82.68;47.38;;;;;;;4.36;65.22;94637.09;4967320;28;20035;-80
2022/02/17 03:31:59;;;;;;;94.32;52.30;;;;;;;4.35;65.00;94638.88;4941668;29;20019;-80
2022/02/17 03:34:25;;;;;;;120.43;64.10;;;;;;;4.31;64.39;94616.31;4942401;29;20096;-80
2022/02/17 03:36:50;;;;;;;137.00;73.90;;;;;;;4.28;63.92;94614.94;4943179;29;20082;-80
2022/02/17 03:39:16;;;;;;;148.25;83.15;;;;;;;4.34;63.58;94614.13;4941252;29;20522;-79
2022/02/17 03:41:41;;;;;;;148.43;79.50;;;;;;;4.30;64.53;94617.31;4957685;29;20045;-79
2022/02/17 03:44:07;;;;;;;113.45;61.85;;;;;;;4.28;65.04;94632.16;4957518;28;20038;-79
2022/02/17 03:46:32;;;;;;;144.55;77.90;;;;;;;4.19;65.18;94619.47;4956988;29;20067;-79
2022/02/17 03:48:57;;;;;;;157.10;81.53;;;;;;;4.30;64.15;94633.53;4957700;28;20492;-79
2022/02/17 03:51:23;;;;;;;132.18;76.47;;;;;;;4.21;64.14;94629.56;4958123;29;20511;-79
2022/02/17 03:53:48;;;;;;;125.65;69.55;;;;;;;4.20;64.36;94627.97;4958120;29;20732;-83
2022/02/17 03:56:14;;;;;;;157.00;80.03;;;;;;;4.22;65.14;94637.09;4942224;29;20046;-81
2022/02/17 04:01:23;;;;;;;133.15;71.25;;;;;;;4.15;65.18;94654.31;4958499;29;20067;-81
2022/02/17 04:03:49;;;;;;;112.38;62.85;;;;;;;4.03;64.07;94647.34;4954823;29;20031;-81
2022/02/17 04:06:14;;;;;;;79.88;47.60;;;;;;;4.12;65.32;94651.34;4959005;29;20053;-82
2022/02/17 04:08:40;;;;;;;99.15;58.55;;;;;;;4.17;64.86;94665.19;4978548;28;20030;-81
2022/02/17 04:11:05;;;;;;;80.50;47.75;;;;;;;4.09;64.85;94667.19;4960367;29;20058;-81
2022/02/17 04:13:31;;;;;;;97.22;55.50;;;;;;;4.17;65.77;94670.34;4978057;28;20038;-81
2022/02/17 04:15:56;;;;;;;104.53;56.90;;;;;;;4.18;64.06;94659.06;4974277;29;20050;-81
2022/02/17 04:18:22;;;;;;;88.80;49.38;;;;;;;4.06;65.16;94670.91;4961653;29;20043;-83
2022/02/17 04:20:48;;;;;;;118.78;70.50;;;;;;;4.09;64.81;94667.97;4961814;29;20039;-83
2022/02/17 04:23:14;;;;;;;111.05;64.93;;;;;;;4.18;64.39;94664.22;4959287;29;20038;-82
2022/02/17 04:25:39;;;;;;;89.90;51.25;;;;;;;4.19;65.86;94658.06;4960763;28;20035;-81
2022/02/17 04:28:05;;;;;;;94.72;54.15;;;;;;;4.29;65.45;94657.69;4960256;28;20034;-82
2022/02/17 04:30:30;;;;;;;133.15;71.28;;;;;;;4.34;64.96;94649.38;4959936;28;20106;-83
2022/02/17 04:32:55;;;;;;;145.18;79.80;;;;;;;4.34;64.99;94644.22;4944861;29;20035;-82
2022/02/17 04:35:21;;;;;;;146.93;85.57;;;;;;;4.35;64.86;94640.66;4927997;29;20063;-82
2022/02/17 04:37:47;;;;;;;178.18;93.82;;;;;;;4.31;64.96;94639.47;4942874;29;20400;-82
2022/02/17 04:40:13;;;;;;;180.43;92.18;;;;;;;4.36;64.36;94631.94;4928344;29;20067;-83
2022/02/17 04:42:39;;;;;;;199.48;97.00;;;;;;;4.36;64.93;94629.38;4946986;29;20392;-82
2022/02/17 04:45:07;;;;;;;205.15;105.47;;;;;;;4.44;64.56;94629.19;4962643;28;20031;-84
2022/02/17 04:47:33;;;;;;;223.20;112.68;;;;;;;4.41;64.53;94620.09;4925495;29;20057;-78
2022/02/17 04:49:58;;;;;;;189.30;102.32;;;;;;;4.48;64.85;94626.03;4959307;28;20448;-79
2022/02/17 04:52:23;;;;;;;175.82;93.22;;;;;;;4.51;65.63;94624.81;4958074;28;20035;-79
2022/02/17 04:54:49;;;;;;;181.77;94.10;;;;;;;4.60;64.58;94617.69;4959666;28;20035;-79
2022/02/17 04:57:14;;;;;;;143.43;81.20;;;;;;;4.63;65.04;94607.78;4958135;29;20041;-76
2022/02/17 04:59:40;;;;;;;106.07;58.10;;;;;;;4.69;64.98;94616.50;4958521;28;20043;-77
2022/02/17 05:02:05;;;;;;;107.20;59.15;;;;;;;4.75;64.62;94613.13;4957769;29;20090;-77
2022/02/17 05:04:31;;;;;;;134.50;69.00;;;;;;;4.88;64.86;94614.88;4981250;23;20042;-77
2022/02/17 05:06:56;;;;;;;134.50;75.65;;;;;;;4.86;64.51;94609.94;4964629;28;20031;-77
2022/02/17 05:09:21;;;;;;;148.88;74.50;;;;;;;4.96;63.92;94610.31;4950480;28;20038;-77
2022/02/17 05:11:47;;;;;;;137.73;69.28;;;;;;;4.96;64.74;94604.38;4972944;28;20041;-78
2022/02/17 05:14:12;;;;;;;94.38;50.58;;;;;;;5.03;64.93;94605.13;4972339;28;20045;-77
2022/02/17 05:16:38;;;;;;;85.25;48.10;;;;;;;5.06;64.28;94608.13;4971893;28;20027;-77
2022/02/17 05:19:03;;;;;;;84.85;48.70;;;;;;;5.09;64.34;94610.28;4972824;28;20030;-77
2022/02/17 05:21:29;;;;;;;77.35;41.97;;;;;;;5.11;64.04;94608.28;4971889;28;20035;-77
2022/02/17 05:23:55;;;;;;;78.18;44.33;;;;;;;5.19;63.77;94609.84;4956998;28;20077;-77
2022/02/17 05:26:20;;;;;;;88.90;44.85;;;;;;;5.27;64.37;94611.41;4974974;28;20334;-82
2022/02/17 05:28:46;;;;;;;77.38;42.78;;;;;;;5.25;64.43;94601.31;4973261;28;20035;-77
2022/02/17 05:31:11;;;;;;;90.82;51.20;;;;;;;5.34;63.76;94610.38;4970430;28;20035;-77
2022/02/17 05:33:37;;;;;;;89.20;45.83;;;;;;;5.31;63.57;94600.50;4970110;28;20034;-77
2022/02/17 05:36:02;;;;;;;90.10;44.80;;;;;;;5.40;64.01;94598.50;4971723;28;20530;-77
2022/02/17 05:38:28;;;;;;;105.20;57.10;;;;;;;5.47;63.89;94598.44;4970538;28;20111;-77
2022/02/17 05:40:53;;;;;;;78.93;42.42;;;;;;;5.56;63.25;94602.38;4973435;28;20035;-77
2022/02/17 05:43:18;;;;;;;95.85;51.75;;;;;;;5.75;62.57;94595.53;4971333;28;20030;-77
2022/02/17 05:45:44;;;;;;;105.18;56.53;;;;;;;5.85;61.95;94599.25;4971685;28;20038;-77
2022/02/17 05:48:09;;;;;;;128.20;72.88;;;;;;;5.88;62.25;94596.28;4973517;28;20034;-79
2022/02/17 05:50:35;;;;;;;134.98;77.38;;;;;;;5.96;62.06;94597.81;4972559;28;20034;-77
2022/02/17 05:53:00;;;;;;;115.07;58.72;;;;;;;6.12;61.51;94597.31;4954853;28;20038;-77
2022/02/17 05:55:26;;;;;;;229.93;131.38;;;;;;;6.14;60.91;94599.69;4971145;28;20035;-77
2022/02/17 05:57:51;;;;;;;337.83;191.40;;;;;;;6.28;61.04;94590.84;4971472;28;20027;-78
2022/02/17 06:00:17;;;;;;;323.17;191.85;;;;;;;6.40;60.25;94609.06;4971772;28;20031;-77
2022/02/17 06:05:17;;;;;;;252.87;148.37;;;;;;;6.57;59.33;94600.56;4960268;23;20068;-79
2022/02/17 06:07:42;;;;;;;250.93;144.50;;;;;;;6.65;60.22;94607.25;4949100;29;20038;-81
2022/02/17 06:10:08;;;;;;;228.32;139.20;;;;;;;6.82;59.32;94607.50;4925528;29;20097;-81
2022/02/17 06:12:44;;;;;;;172.65;103.15;;;;;;;6.90;59.02;94613.19;4946033;29;20039;-80
2022/02/17 06:15:10;;;;;;;140.95;77.97;;;;;;;6.95;58.54;94622.09;4947702;28;20488;-80
2022/02/17 06:17:36;;;;;;;107.22;64.65;;;;;;;7.00;57.73;94637.78;4932320;29;20059;-80
2022/02/17 06:20:03;;;;;;;110.75;61.53;;;;;;;6.95;58.89;94633.22;4930233;29;20046;-80
2022/02/17 06:22:29;;;;;;;96.53;54.50;;;;;;;6.71;58.95;94637.41;4931168;29;20035;-79
2022/02/17 06:24:54;;;;;;;95.75;57.58;;;;;;;6.59;58.90;94634.72;4932807;29;20035;-80
2022/02/17 06:27:20;;;;;;;111.95;58.28;;;;;;;6.50;59.41;94651.47;4933332;29;20097;-79
2022/02/17 06:29:45;;;;;;;115.53;60.47;;;;;;;6.54;59.23;94638.94;4962463;28;20030;-78
2022/02/17 06:32:11;;;;;;;111.95;60.83;;;;;;;6.52;59.88;94646.91;4964446;28;20111;-78
2022/02/17 06:34:37;;;;;;;114.95;56.92;;;;;;;6.60;59.21;94646.63;4918231;29;20392;-80
2022/02/17 06:37:03;;;;;;;107.63;59.47;;;;;;;6.56;58.98;94653.22;4946074;29;20050;-81
2022/02/17 06:39:28;;;;;;;93.53;53.65;;;;;;;6.55;59.09;94659.41;4917397;29;20040;-81
2022/02/17 06:41:53;;;;;;;95.32;55.42;;;;;;;6.58;58.66;94643.47;4914602;29;20116;-81
2022/02/17 06:44:19;;;;;;;110.65;58.45;;;;;;;6.61;59.57;94642.25;4944155;28;20385;-81
2022/02/17 06:46:44;;;;;;;103.40;57.03;;;;;;;6.66;58.84;94644.19;4963921;28;20047;-80
2022/02/17 06:49:10;;;;;;;107.53;57.20;;;;;;;6.68;58.20;94657.72;4946647;29;20050;-80
2022/02/17 06:51:35;;;;;;;106.82;58.97;;;;;;;6.73;58.21;94650.13;4930006;29;20050;-80
2022/02/17 06:54:01;;;;;;;120.97;60.47;;;;;;;6.74;58.65;94641.38;4946405;28;20082;-80
2022/02/17 06:56:27;;;;;;;113.22;61.45;;;;;;;6.68;58.96;94632.69;4933078;29;20027;-80
2022/02/17 06:58:52;;;;;;;115.35;62.10;;;;;;;6.83;58.60;94638.31;4945720;28;20031;-80
2022/02/17 07:01:17;;;;;;;110.68;61.42;;;;;;;6.91;58.28;94637.25;4947312;28;20050;-79
2022/02/17 07:03:43;;;;;;;105.20;61.25;;;;;;;6.89;58.48;94629.69;4947787;28;20419;-79
2022/02/17 07:06:09;;;;;;;105.50;55.80;;;;;;;6.98;58.47;94632.78;4946192;28;20038;-79
2022/02/17 07:08:34;;;;;;;107.63;56.05;;;;;;;7.19;58.18;94629.03;4930298;28;20042;-79
2022/02/17 07:11:03;;;;;;;103.28;54.20;;;;;;;7.49;57.24;94616.94;4930242;29;20057;-80
2022/02/17 07:13:29;;;;;;;94.10;52.28;;;;;;;7.72;56.18;94613.66;4945130;29;20031;-80
2022/02/17 07:15:55;;;;;;;97.63;52.17;;;;;;;8.00;55.63;94620.88;4930949;29;20129;-80
2022/02/17 07:18:21;;;;;;;94.78;51.28;;;;;;;8.24;55.50;94613.97;4945351;29;20064;-80
2022/02/17 07:20:48;;;;;;;91.38;49.35;;;;;;;8.52;54.72;94613.38;4947173;29;20043;-80
2022/02/17 07:23:17;;;;;;;97.68;53.50;;;;;;;8.78;54.35;94606.16;4928611;29;20095;-79
2022/02/17 07:25:43;;;;;;;91.80;51.20;;;;;;;9.08;54.23;94595.69;4914856;29;20112;-80
2022/02/17 07:28:08;;;;;;;100.75;54.85;;;;;;;9.38;52.30;94591.13;4943594;29;20058;-80
2022/02/17 07:30:37;;;;;;;97.38;52.42;;;;;;;9.55;52.39;94591.97;4946836;28;20431;-80
2022/02/17 07:33:04;;;;;;;81.18;46.63;;;;;;;9.62;52.24;94582.25;4928756;29;20039;-79
2022/02/17 07:35:30;;;;;;;85.28;46.50;;;;;;;9.78;50.96;94582.56;4945082;29;20090;-79
2022/02/17 07:37:55;;;;;;;76.82;45.15;;;;;;;9.76;50.79;94576.78;4944770;29;20074;-78
2022/02/17 07:40:21;;;;;;;82.28;44.72;;;;;;;9.63;51.20;94576.06;4955014;28;20035;-80
2022/02/17 07:42:46;;;;;;;73.18;42.20;;;;;;;9.45;50.67;94571.03;4949025;29;20535;-81
2022/02/17 07:45:12;;;;;;;74.05;42.90;;;;;;;9.38;51.29;94565.16;4929150;29;20475;-81
2022/02/17 07:47:42;;;;;;;83.45;44.83;;;;;;;9.43;51.68;94562.66;4928140;29;20091;-80
2022/02/17 07:50:08;;;;;;;86.25;48.05;;;;;;;9.58;51.56;94555.16;4947210;29;20036;-81
2022/02/17 07:52:33;;;;;;;90.95;52.35;;;;;;;9.75;50.66;94541.44;4959452;28;20028;-80
2022/02/17 07:54:58;;;;;;;89.60;50.17;;;;;;;9.92;51.14;94537.06;4947174;29;20037;-81
2022/02/17 07:57:24;;;;;;;98.72;52.42;;;;;;;10.05;50.73;94539.38;4946359;29;20067;-81
2022/02/17 07:59:49;;;;;;;89.15;52.17;;;;;;;10.21;49.92;94532.66;4943026;29;20058;-80
2022/02/17 08:02:15;;;;;;;98.55;53.80;;;;;;;10.42;49.47;94528.56;4945865;29;20826;-80
2022/02/17 08:04:40;;;;;;;99.15;53.58;;;;;;;10.62;48.76;94536.66;4944442;28;20039;-79
2022/02/17 08:07:06;;;;;;;86.82;52.58;;;;;;;10.53;47.84;94527.69;4944107;28;20048;-78
2022/02/17 08:09:31;;;;;;;97.18;52.65;;;;;;;10.70;48.07;94530.25;4944933;28;20043;-80
2022/02/17 08:11:57;;;;;;;89.20;51.05;;;;;;;10.60;47.68;94520.53;4943622;29;20039;-80
2022/02/17 08:14:22;;;;;;;92.78;53.67;;;;;;;10.30;48.54;94522.66;4946507;28;20032;-80
2022/02/17 08:16:47;;;;;;;102.00;54.80;;;;;;;10.28;48.47;94516.91;4927622;29;20055;-80
2022/02/17 08:19:13;;;;;;;95.05;56.40;;;;;;;10.30;48.62;94515.66;4947865;28;20031;-80
2022/02/17 08:21:38;;;;;;;98.88;55.08;;;;;;;10.23;48.96;94526.19;4946999;29;20035;-80
2022/02/17 08:24:04;;;;;;;83.75;48.53;;;;;;;10.41;48.97;94521.78;4950757;29;20039;-79
2022/02/17 08:26:30;;;;;;;85.80;48.60;;;;;;;10.44;48.75;94516.13;4932759;29;20935;-80
2022/02/17 08:28:59;;;;;;;86.30;48.50;;;;;;;10.65;48.12;94523.19;4949176;29;20042;-79
2022/02/17 08:31:28;;;;;;;79.50;46.90;;;;;;;10.85;47.28;94516.69;4949099;29;20095;-80
2022/02/17 08:33:53;;;;;;;85.00;49.00;;;;;;;10.91;47.16;94515.72;4935956;29;20043;-80
2022/02/17 08:36:19;;;;;;;83.50;46.15;;;;;;;10.94;47.68;94510.03;4945632;29;20036;-80
2022/02/17 08:38:44;;;;;;;91.68;47.88;;;;;;;11.02;47.36;94517.41;4930414;29;20504;-79
2022/02/17 08:41:10;;;;;;;94.82;48.42;;;;;;;11.11;47.26;94510.78;4932233;29;20107;-79
2022/02/17 08:43:35;;;;;;;94.53;48.60;;;;;;;11.17;47.04;94507.19;4947385;28;20182;-79
2022/02/17 08:46:01;;;;;;;72.85;44.15;;;;;;;11.22;46.78;94506.47;4947042;29;20167;-81
2022/02/17 08:48:27;;;;;;;72.15;43.10;;;;;;;11.25;46.17;94506.00;4947480;28;20506;-81
2022/02/17 08:50:52;;;;;;;85.97;49.75;;;;;;;11.15;46.49;94500.66;4947945;28;20039;-80
2022/02/17 08:53:18;;;;;;;84.60;48.28;;;;;;;11.19;46.60;94489.53;4931075;29;20035;-80
2022/02/17 08:55:44;;;;;;;91.65;49.53;;;;;;;11.26;46.49;94482.34;4945625;28;20035;-81
2022/02/17 08:58:10;;;;;;;83.40;49.88;;;;;;;11.36;46.36;94482.44;4930751;29;20043;-85
2022/02/17 09:00:35;;;;;;;93.00;49.45;;;;;;;11.36;45.99;94482.44;4930770;29;20059;-80
2022/02/17 09:03:01;;;;;;;89.85;47.63;;;;;;;11.49;46.17;94475.28;4930933;29;20452;-80
2022/02/17 09:05:27;;;;;;;87.60;48.63;;;;;;;11.55;46.09;94476.88;4946641;29;20032;-80
2022/02/17 09:07:53;;;;;;;98.45;46.50;;;;;;;11.58;45.30;94473.81;4946301;29;20071;-81
2022/02/17 09:10:19;;;;;;;73.32;45.05;;;;;;;11.64;45.60;94478.03;4947041;28;20121;-80
2022/02/17 09:12:45;;;;;;;82.45;47.63;;;;;;;11.55;45.47;94474.28;4947224;29;20091;-80
2022/02/17 09:15:10;;;;;;;75.55;43.22;;;;;;;11.52;45.77;94474.78;4946464;29;20051;-80
2022/02/17 09:17:36;;;;;;;72.60;43.78;;;;;;;11.61;46.02;94463.69;4949028;29;20038;-80
2022/02/17 09:20:03;;;;;;;74.45;41.38;;;;;;;11.64;45.79;94462.41;4948614;29;20036;-81
2022/02/17 09:22:29;;;;;;;79.57;41.05;;;;;;;11.73;46.06;94468.75;4938773;29;20032;-80
2022/02/17 09:24:54;;;;;;;76.90;42.72;;;;;;;11.80;45.60;94466.75;4948719;28;20035;-79
2022/02/17 09:27:20;;;;;;;78.95;40.33;;;;;;;11.82;45.74;94464.69;4951662;28;20036;-79
2022/02/17 09:29:45;;;;;;;63.92;39.38;;;;;;;11.64;45.94;94459.78;4931824;29;20126;-79
2022/02/17 09:32:11;;;;;;;76.57;41.10;;;;;;;11.51;46.41;94452.38;4946307;29;20038;-79
2022/02/17 09:34:40;;;;;;;69.38;39.53;;;;;;;11.45;47.00;94455.97;4946368;29;20038;-80
2022/02/17 09:37:06;;;;;;;66.38;40.92;;;;;;;11.56;46.62;94455.84;4946586;29;20039;-81
2022/02/17 09:39:33;;;;;;;68.30;40.22;;;;;;;11.70;46.60;94462.19;4932415;29;20039;-81
2022/02/17 09:42:05;;;;;;;66.45;38.95;;;;;;;11.84;46.47;94467.81;4928863;29;20547;-81
2022/02/17 09:44:31;;;;;;;93.38;39.28;;;;;;;12.00;46.27;94460.91;4929405;29;20052;-81
2022/02/17 09:46:56;;;;;;;68.38;37.05;;;;;;;12.07;45.83;94456.28;4946707;29;20028;-81
2022/02/17 09:49:22;;;;;;;74.90;39.35;;;;;;;12.24;45.42;94466.59;4932836;29;20114;-81
2022/02/17 09:51:52;;;;;;;69.97;37.92;;;;;;;12.08;45.86;94451.88;4945879;29;20392;-81
2022/02/17 09:54:18;;;;;;;65.25;37.40;;;;;;;12.01;45.99;94447.63;4945365;29;20071;-81
2022/02/17 09:56:44;;;;;;;72.90;38.13;;;;;;;12.08;46.42;94439.63;4948345;29;20094;-81
2022/02/17 09:59:11;;;;;;;68.10;38.22;;;;;;;12.13;46.33;94438.88;4949119;29;20047;-81
2022/02/17 10:01:37;;;;;;;66.32;40.35;;;;;;;12.21;46.64;94451.44;4946657;29;20027;-80
2022/02/17 10:04:17;;;;;;;73.38;38.88;;;;;;;12.22;46.41;94437.38;4945397;28;20044;-80
2022/02/17 10:06:51;;;;;;;67.35;39.60;;;;;;;12.16;46.61;94427.94;4945342;29;20063;-80
2022/02/17 10:09:18;;;;;;;65.65;39.70;;;;;;;12.09;46.98;94432.59;4952567;29;20027;-79
2022/02/17 10:11:45;;;;;;;62.67;40.05;;;;;;;12.10;47.20;94428.94;4948648;29;20063;-81
2022/02/17 10:14:12;;;;;;;72.20;38.92;;;;;;;12.23;46.99;94426.69;4929322;29;20500;-80
2022/02/17 10:16:59;;;;;;;69.43;38.63;;;;;;;12.33;46.84;94433.78;4934950;29;20039;-81
2022/02/17 10:19:29;;;;;;;75.55;37.70;;;;;;;12.37;46.45;94408.00;4936855;29;20146;-81
2022/02/17 10:22:05;;;;;;;62.60;32.55;;;;;;;12.35;47.13;94400.41;4952290;29;20032;-81
2022/02/17 10:24:44;;;;;;;66.07;33.38;;;;;;;12.39;47.38;94396.28;4960412;28;20039;-80
2022/02/17 10:27:14;;;;;;;33.92;12.68;;;;;;;12.53;48.37;94370.53;4946748;29;20039;-79
2022/02/17 10:29:39;;;;;;;27.00;5.40;;;;;;;12.62;48.65;94366.38;4961603;29;20031;-81
2022/02/17 10:32:10;;;;;;;17.98;7.57;;;;;;;12.83;49.01;94351.59;4936630;29;20443;-81
2022/02/17 10:34:36;;;;;;;39.25;8.50;;;;;;;12.95;48.85;94362.59;4949581;28;20099;-81
2022/02/17 10:37:02;;;;;;;35.15;7.07;;;;;;;13.11;47.94;94339.91;4918144;29;20031;-81
2022/02/17 10:39:28;;;;;;;34.63;7.80;;;;;;;13.09;47.81;94334.97;4949245;28;20038;-80
2022/02/17 10:42:05;;;;;;;15.88;5.65;;;;;;;13.02;47.49;94326.59;4931978;29;20031;-81
2022/02/17 10:44:39;;;;;;;26.45;6.63;;;;;;;13.01;48.04;94325.00;4949889;29;20122;-80
2022/02/17 10:47:23;;;;;;;27.85;5.78;;;;;;;13.08;47.95;94306.50;4947592;29;20111;-81
2022/02/17 10:49:52;;;;;;;20.10;4.47;;;;;;;13.10;48.03;94302.59;4915672;29;20043;-81
2022/02/17 10:52:35;;;;;;;18.13;5.50;;;;;;;13.17;47.88;94292.66;4934106;29;20192;-81
2022/02/17 10:55:20;;;;;;;13.23;5.90;;;;;;;13.12;47.74;94290.06;4973073;28;20031;-80
2022/02/17 10:57:47;;;;;;;24.20;9.80;;;;;;;13.12;48.30;94284.84;4943111;29;20066;-80
2022/02/17 11:00:20;;;;;;;21.17;6.40;;;;;;;13.19;47.30;94261.13;4935738;29;20039;-81
2022/02/17 11:02:46;;;;;;;21.08;5.95;;;;;;;13.24;47.53;94276.00;4948172;29;20104;-81
2022/02/17 11:05:12;;;;;;;20.52;5.72;;;;;;;13.25;47.49;94275.75;4948602;28;20035;-80
2022/02/17 11:07:39;;;;;;;11.48;5.47;;;;;;;13.29;47.37;94270.78;4915933;29;20054;-80
2022/02/17 11:10:05;;;;;;;14.95;6.57;;;;;;;13.35;47.51;94277.59;4913452;29;20114;-80
2022/02/17 11:12:30;;;;;;;18.95;6.32;;;;;;;13.45;47.23;94256.66;4927767;29;20039;-81
2022/02/17 11:14:57;;;;;;;15.27;6.18;;;;;;;13.39;47.09;94260.34;4930180;29;20035;-79
2022/02/17 11:17:23;;;;;;;19.90;5.72;;;;;;;13.48;47.08;94261.38;4916069;29;20039;-79
2022/02/17 11:22:23;;;;;;;23.67;8.43;;;;;;;13.73;45.86;94263.94;5122707;23;20051;-78
2022/02/17 11:24:50;;;;;;;18.08;5.20;;;;;;;13.78;46.64;94245.66;4955621;28;20042;-81